sensor_id;sensor_type;location;lat;lon;timestamp;temperature;humidity
55634;DHT22;41504;53.162;6.788;2023-02-22T00:00:43;9.10;95.60
55634;DHT22;41504;53.162;6.788;2023-02-22T00:03:21;9.20;95.70
55634;DHT22;41504;53.162;6.788;2023-02-22T00:05:55;9.10;95.70
55634;DHT22;41504;53.162;6.788;2023-02-22T00:08:24;9.20;95.70
55634;DHT22;41504;53.162;6.788;2023-02-22T00:10:56;9.20;95.90
55634;DHT22;41504;53.162;6.788;2023-02-22T00:13:22;9.20;95.60
55634;DHT22;41504;53.162;6.788;2023-02-22T00:15:48;9.20;95.70
55634;DHT22;41504;53.162;6.788;2023-02-22T00:18:19;9.20;95.60
55634;DHT22;41504;53.162;6.788;2023-02-22T00:20:45;9.20;95.60
55634;DHT22;41504;53.162;6.788;2023-02-22T00:23:20;9.20;95.60
55634;DHT22;41504;53.162;6.788;2023-02-22T00:25:48;9.20;95.60
55634;DHT22;41504;53.162;6.788;2023-02-22T00:28:18;9.10;95.60
55634;DHT22;41504;53.162;6.788;2023-02-22T00:30:44;9.20;95.60
55634;DHT22;41504;53.162;6.788;2023-02-22T00:33:14;9.20;95.70
55634;DHT22;41504;53.162;6.788;2023-02-22T00:35:41;9.10;95.60
55634;DHT22;41504;53.162;6.788;2023-02-22T00:38:11;9.20;95.70
55634;DHT22;41504;53.162;6.788;2023-02-22T00:40:37;9.10;95.60
55634;DHT22;41504;53.162;6.788;2023-02-22T00:43:04;9.20;95.60
55634;DHT22;41504;53.162;6.788;2023-02-22T00:45:32;9.10;95.70
55634;DHT22;41504;53.162;6.788;2023-02-22T00:47:58;9.10;95.60
55634;DHT22;41504;53.162;6.788;2023-02-22T00:50:26;9.10;95.70
55634;DHT22;41504;53.162;6.788;2023-02-22T00:52:53;9.10;95.70
55634;DHT22;41504;53.162;6.788;2023-02-22T00:55:28;9.10;95.70
55634;DHT22;41504;53.162;6.788;2023-02-22T00:57:54;9.10;95.70
55634;DHT22;41504;53.162;6.788;2023-02-22T01:00:23;9.10;95.70
55634;DHT22;41504;53.162;6.788;2023-02-22T01:02:50;9.10;95.90
55634;DHT22;41504;53.162;6.788;2023-02-22T01:05:19;9.10;95.70
55634;DHT22;41504;53.162;6.788;2023-02-22T01:07:48;9.10;95.70
55634;DHT22;41504;53.162;6.788;2023-02-22T01:10:16;9.10;95.70
55634;DHT22;41504;53.162;6.788;2023-02-22T01:12:44;9.10;95.70
55634;DHT22;41504;53.162;6.788;2023-02-22T01:15:10;9.00;95.70
55634;DHT22;41504;53.162;6.788;2023-02-22T01:17:38;9.10;95.70
55634;DHT22;41504;53.162;6.788;2023-02-22T01:20:06;9.10;95.70
55634;DHT22;41504;53.162;6.788;2023-02-22T01:22:40;9.10;95.70
55634;DHT22;41504;53.162;6.788;2023-02-22T01:25:08;9.10;95.70
55634;DHT22;41504;53.162;6.788;2023-02-22T01:27:34;9.10;95.70
55634;DHT22;41504;53.162;6.788;2023-02-22T01:30:02;9.10;95.70
55634;DHT22;41504;53.162;6.788;2023-02-22T01:32:37;9.10;95.70
55634;DHT22;41504;53.162;6.788;2023-02-22T01:35:05;9.10;95.70
55634;DHT22;41504;53.162;6.788;2023-02-22T01:37:34;9.00;95.70
55634;DHT22;41504;53.162;6.788;2023-02-22T01:40:05;9.10;95.70
55634;DHT22;41504;53.162;6.788;2023-02-22T01:42:34;9.10;95.70
55634;DHT22;41504;53.162;6.788;2023-02-22T01:50:58;9.00;95.60
55634;DHT22;41504;53.162;6.788;2023-02-22T01:53:34;9.00;95.60
55634;DHT22;41504;53.162;6.788;2023-02-22T01:56:01;9.00;95.70
55634;DHT22;41504;53.162;6.788;2023-02-22T01:58:29;9.00;95.70
55634;DHT22;41504;53.162;6.788;2023-02-22T02:00:57;9.00;95.60
55634;DHT22;41504;53.162;6.788;2023-02-22T02:03:27;9.00;95.60
55634;DHT22;41504;53.162;6.788;2023-02-22T02:05:58;9.00;95.70
55634;DHT22;41504;53.162;6.788;2023-02-22T02:08:43;9.00;95.70
55634;DHT22;41504;53.162;6.788;2023-02-22T02:11:15;9.00;95.70
55634;DHT22;41504;53.162;6.788;2023-02-22T02:13:42;9.00;95.70
55634;DHT22;41504;53.162;6.788;2023-02-22T02:16:08;9.00;95.70
55634;DHT22;41504;53.162;6.788;2023-02-22T02:18:34;9.00;95.60
55634;DHT22;41504;53.162;6.788;2023-02-22T02:21:27;9.00;95.70
55634;DHT22;41504;53.162;6.788;2023-02-22T02:24:38;9.00;95.70
55634;DHT22;41504;53.162;6.788;2023-02-22T02:27:17;8.90;95.60
55634;DHT22;41504;53.162;6.788;2023-02-22T02:30:26;9.00;95.60
55634;DHT22;41504;53.162;6.788;2023-02-22T02:32:53;9.00;95.60
55634;DHT22;41504;53.162;6.788;2023-02-22T02:41:21;9.00;95.60
55634;DHT22;41504;53.162;6.788;2023-02-22T02:46:36;9.00;95.50
55634;DHT22;41504;53.162;6.788;2023-02-22T02:49:10;9.00;95.50
55634;DHT22;41504;53.162;6.788;2023-02-22T02:51:44;9.00;95.50
55634;DHT22;41504;53.162;6.788;2023-02-22T02:54:13;9.00;95.50
55634;DHT22;41504;53.162;6.788;2023-02-22T02:56:40;9.00;95.50
55634;DHT22;41504;53.162;6.788;2023-02-22T03:02:09;9.00;95.50
55634;DHT22;41504;53.162;6.788;2023-02-22T03:15:34;8.90;95.40
55634;DHT22;41504;53.162;6.788;2023-02-22T03:18:06;8.90;95.30
55634;DHT22;41504;53.162;6.788;2023-02-22T03:23:23;8.90;95.30
55634;DHT22;41504;53.162;6.788;2023-02-22T03:26:06;8.90;95.30
55634;DHT22;41504;53.162;6.788;2023-02-22T03:28:35;8.90;95.30
55634;DHT22;41504;53.162;6.788;2023-02-22T03:31:24;8.90;95.30
55634;DHT22;41504;53.162;6.788;2023-02-22T03:34:10;8.90;95.30
55634;DHT22;41504;53.162;6.788;2023-02-22T03:36:44;8.90;95.60
55634;DHT22;41504;53.162;6.788;2023-02-22T03:39:14;8.90;95.30
55634;DHT22;41504;53.162;6.788;2023-02-22T03:41:44;8.90;95.30
55634;DHT22;41504;53.162;6.788;2023-02-22T03:44:21;8.90;95.30
55634;DHT22;41504;53.162;6.788;2023-02-22T03:46:49;8.90;95.30
55634;DHT22;41504;53.162;6.788;2023-02-22T03:50:08;8.90;95.30
55634;DHT22;41504;53.162;6.788;2023-02-22T03:52:32;8.90;95.30
55634;DHT22;41504;53.162;6.788;2023-02-22T03:55:00;8.90;95.30
55634;DHT22;41504;53.162;6.788;2023-02-22T03:57:34;8.90;95.30
55634;DHT22;41504;53.162;6.788;2023-02-22T04:00:23;8.90;95.30
55634;DHT22;41504;53.162;6.788;2023-02-22T04:02:49;8.90;95.30
55634;DHT22;41504;53.162;6.788;2023-02-22T04:05:15;8.80;95.30
55634;DHT22;41504;53.162;6.788;2023-02-22T04:07:43;8.90;95.30
55634;DHT22;41504;53.162;6.788;2023-02-22T04:10:10;8.90;95.30
55634;DHT22;41504;53.162;6.788;2023-02-22T04:12:36;8.90;95.30
55634;DHT22;41504;53.162;6.788;2023-02-22T04:15:03;8.90;95.30
55634;DHT22;41504;53.162;6.788;2023-02-22T04:17:30;8.80;95.30
55634;DHT22;41504;53.162;6.788;2023-02-22T04:19:58;8.80;95.30
55634;DHT22;41504;53.162;6.788;2023-02-22T04:22:24;8.80;95.30
55634;DHT22;41504;53.162;6.788;2023-02-22T04:24:50;8.80;95.30
55634;DHT22;41504;53.162;6.788;2023-02-22T04:27:15;8.80;95.50
55634;DHT22;41504;53.162;6.788;2023-02-22T04:29:41;8.80;95.30
55634;DHT22;41504;53.162;6.788;2023-02-22T04:32:07;8.80;95.30
55634;DHT22;41504;53.162;6.788;2023-02-22T04:34:33;8.80;95.30
55634;DHT22;41504;53.162;6.788;2023-02-22T04:36:59;8.90;95.30
55634;DHT22;41504;53.162;6.788;2023-02-22T04:39:24;8.80;95.30
55634;DHT22;41504;53.162;6.788;2023-02-22T04:41:50;8.80;95.30
55634;DHT22;41504;53.162;6.788;2023-02-22T04:44:19;8.80;95.30
55634;DHT22;41504;53.162;6.788;2023-02-22T04:46:45;8.50;95.30
55634;DHT22;41504;53.162;6.788;2023-02-22T04:49:11;8.80;95.30
55634;DHT22;41504;53.162;6.788;2023-02-22T04:51:37;8.80;95.30
55634;DHT22;41504;53.162;6.788;2023-02-22T04:54:02;8.80;95.30
55634;DHT22;41504;53.162;6.788;2023-02-22T04:56:28;8.80;95.30
55634;DHT22;41504;53.162;6.788;2023-02-22T04:58:54;8.70;95.30
55634;DHT22;41504;53.162;6.788;2023-02-22T05:01:20;8.80;95.30
55634;DHT22;41504;53.162;6.788;2023-02-22T05:03:46;8.70;95.30
55634;DHT22;41504;53.162;6.788;2023-02-22T05:06:12;8.70;95.40
55634;DHT22;41504;53.162;6.788;2023-02-22T05:08:37;8.70;95.30
55634;DHT22;41504;53.162;6.788;2023-02-22T05:11:04;8.70;95.40
55634;DHT22;41504;53.162;6.788;2023-02-22T05:13:30;8.70;95.40
55634;DHT22;41504;53.162;6.788;2023-02-22T05:15:59;8.70;95.40
55634;DHT22;41504;53.162;6.788;2023-02-22T05:18:24;8.70;95.40
55634;DHT22;41504;53.162;6.788;2023-02-22T05:20:50;8.80;95.40
55634;DHT22;41504;53.162;6.788;2023-02-22T05:23:23;8.70;95.40
55634;DHT22;41504;53.162;6.788;2023-02-22T05:25:51;8.70;95.30
55634;DHT22;41504;53.162;6.788;2023-02-22T05:28:17;8.70;95.40
55634;DHT22;41504;53.162;6.788;2023-02-22T05:30:43;8.80;95.30
55634;DHT22;41504;53.162;6.788;2023-02-22T05:33:09;8.70;95.30
55634;DHT22;41504;53.162;6.788;2023-02-22T05:35:35;8.70;95.30
55634;DHT22;41504;53.162;6.788;2023-02-22T05:38:02;8.70;95.30
55634;DHT22;41504;53.162;6.788;2023-02-22T05:40:29;8.70;95.20
55634;DHT22;41504;53.162;6.788;2023-02-22T05:42:58;8.70;95.20
55634;DHT22;41504;53.162;6.788;2023-02-22T05:45:26;8.60;95.20
55634;DHT22;41504;53.162;6.788;2023-02-22T05:47:52;8.70;95.20
55634;DHT22;41504;53.162;6.788;2023-02-22T05:50:22;8.60;95.10
55634;DHT22;41504;53.162;6.788;2023-02-22T05:52:48;8.60;95.10
55634;DHT22;41504;53.162;6.788;2023-02-22T05:55:21;8.60;94.90
55634;DHT22;41504;53.162;6.788;2023-02-22T05:57:48;8.50;94.80
55634;DHT22;41504;53.162;6.788;2023-02-22T06:00:19;8.60;94.70
55634;DHT22;41504;53.162;6.788;2023-02-22T06:03:05;8.60;94.60
55634;DHT22;41504;53.162;6.788;2023-02-22T06:05:32;8.50;94.50
55634;DHT22;41504;53.162;6.788;2023-02-22T06:07:58;8.50;94.60
55634;DHT22;41504;53.162;6.788;2023-02-22T06:10:25;8.60;94.60
55634;DHT22;41504;53.162;6.788;2023-02-22T06:12:51;8.50;94.50
55634;DHT22;41504;53.162;6.788;2023-02-22T06:15:19;8.50;94.50
55634;DHT22;41504;53.162;6.788;2023-02-22T06:17:45;8.40;94.50
55634;DHT22;41504;53.162;6.788;2023-02-22T06:20:16;8.60;94.50
55634;DHT22;41504;53.162;6.788;2023-02-22T06:22:42;8.50;94.50
55634;DHT22;41504;53.162;6.788;2023-02-22T06:25:12;8.50;94.50
55634;DHT22;41504;53.162;6.788;2023-02-22T06:27:38;8.50;94.40
55634;DHT22;41504;53.162;6.788;2023-02-22T06:30:05;8.50;94.30
55634;DHT22;41504;53.162;6.788;2023-02-22T06:32:31;8.50;94.10
55634;DHT22;41504;53.162;6.788;2023-02-22T06:35:04;8.50;94.20
55634;DHT22;41504;53.162;6.788;2023-02-22T06:37:30;8.50;94.20
55634;DHT22;41504;53.162;6.788;2023-02-22T06:39:56;8.40;94.20
55634;DHT22;41504;53.162;6.788;2023-02-22T06:42:22;8.50;94.20
55634;DHT22;41504;53.162;6.788;2023-02-22T06:44:48;8.50;94.20
55634;DHT22;41504;53.162;6.788;2023-02-22T06:47:14;8.50;94.20
55634;DHT22;41504;53.162;6.788;2023-02-22T06:49:40;8.50;94.20
55634;DHT22;41504;53.162;6.788;2023-02-22T06:52:07;8.50;94.20
55634;DHT22;41504;53.162;6.788;2023-02-22T06:54:34;8.50;94.20
55634;DHT22;41504;53.162;6.788;2023-02-22T06:57:00;8.50;94.20
55634;DHT22;41504;53.162;6.788;2023-02-22T06:59:26;8.50;94.10
55634;DHT22;41504;53.162;6.788;2023-02-22T07:01:52;8.50;94.20
55634;DHT22;41504;53.162;6.788;2023-02-22T07:04:19;8.50;94.10
55634;DHT22;41504;53.162;6.788;2023-02-22T07:06:51;8.50;94.10
55634;DHT22;41504;53.162;6.788;2023-02-22T07:09:18;8.50;94.10
55634;DHT22;41504;53.162;6.788;2023-02-22T07:11:44;8.50;94.10
55634;DHT22;41504;53.162;6.788;2023-02-22T07:14:10;8.50;94.10
55634;DHT22;41504;53.162;6.788;2023-02-22T07:16:35;8.50;94.10
55634;DHT22;41504;53.162;6.788;2023-02-22T07:19:01;8.50;94.00
55634;DHT22;41504;53.162;6.788;2023-02-22T07:21:27;8.50;94.00
55634;DHT22;41504;53.162;6.788;2023-02-22T07:23:54;8.50;94.10
55634;DHT22;41504;53.162;6.788;2023-02-22T07:26:22;8.50;94.10
55634;DHT22;41504;53.162;6.788;2023-02-22T07:28:48;8.50;94.00
55634;DHT22;41504;53.162;6.788;2023-02-22T07:31:14;8.50;93.90
55634;DHT22;41504;53.162;6.788;2023-02-22T07:33:40;8.50;93.90
55634;DHT22;41504;53.162;6.788;2023-02-22T07:36:06;8.50;93.90
55634;DHT22;41504;53.162;6.788;2023-02-22T07:38:32;8.50;93.80
55634;DHT22;41504;53.162;6.788;2023-02-22T07:40:58;8.50;93.70
55634;DHT22;41504;53.162;6.788;2023-02-22T07:43:25;8.50;93.80
55634;DHT22;41504;53.162;6.788;2023-02-22T07:45:57;8.50;93.80
55634;DHT22;41504;53.162;6.788;2023-02-22T07:48:25;8.60;93.80
55634;DHT22;41504;53.162;6.788;2023-02-22T07:50:54;8.60;93.60
55634;DHT22;41504;53.162;6.788;2023-02-22T07:53:26;8.60;93.60
55634;DHT22;41504;53.162;6.788;2023-02-22T07:55:56;8.60;93.50
55634;DHT22;41504;53.162;6.788;2023-02-22T07:58:23;8.60;93.50
55634;DHT22;41504;53.162;6.788;2023-02-22T08:00:52;8.70;93.60
55634;DHT22;41504;53.162;6.788;2023-02-22T08:03:36;8.70;93.40
55634;DHT22;41504;53.162;6.788;2023-02-22T08:06:04;8.70;93.40
55634;DHT22;41504;53.162;6.788;2023-02-22T08:08:31;8.70;93.40
55634;DHT22;41504;53.162;6.788;2023-02-22T08:10:57;8.80;93.40
55634;DHT22;41504;53.162;6.788;2023-02-22T08:13:23;8.60;93.30
55634;DHT22;41504;53.162;6.788;2023-02-22T08:15:51;8.70;93.30
55634;DHT22;41504;53.162;6.788;2023-02-22T08:18:18;8.70;93.20
55634;DHT22;41504;53.162;6.788;2023-02-22T08:20:46;8.70;93.20
55634;DHT22;41504;53.162;6.788;2023-02-22T08:23:13;8.70;93.20
55634;DHT22;41504;53.162;6.788;2023-02-22T08:25:39;8.70;93.20
55634;DHT22;41504;53.162;6.788;2023-02-22T08:28:08;8.70;93.10
55634;DHT22;41504;53.162;6.788;2023-02-22T08:30:35;8.70;93.10
55634;DHT22;41504;53.162;6.788;2023-02-22T08:33:02;8.70;93.30
55634;DHT22;41504;53.162;6.788;2023-02-22T08:35:29;8.80;93.00
55634;DHT22;41504;53.162;6.788;2023-02-22T08:37:58;8.80;93.00
55634;DHT22;41504;53.162;6.788;2023-02-22T08:40:27;8.80;92.90
55634;DHT22;41504;53.162;6.788;2023-02-22T08:42:56;8.80;92.90
55634;DHT22;41504;53.162;6.788;2023-02-22T08:45:21;8.80;92.90
55634;DHT22;41504;53.162;6.788;2023-02-22T08:47:47;8.80;92.90
55634;DHT22;41504;53.162;6.788;2023-02-22T08:50:26;8.80;92.80
55634;DHT22;41504;53.162;6.788;2023-02-22T08:52:57;8.90;92.80
55634;DHT22;41504;53.162;6.788;2023-02-22T08:55:26;8.90;92.80
55634;DHT22;41504;53.162;6.788;2023-02-22T08:57:52;8.90;92.60
55634;DHT22;41504;53.162;6.788;2023-02-22T09:00:19;8.90;92.60
55634;DHT22;41504;53.162;6.788;2023-02-22T09:02:45;8.90;92.60
55634;DHT22;41504;53.162;6.788;2023-02-22T09:05:11;9.00;92.60
55634;DHT22;41504;53.162;6.788;2023-02-22T09:07:40;9.00;92.50
55634;DHT22;41504;53.162;6.788;2023-02-22T09:10:06;9.00;92.50
55634;DHT22;41504;53.162;6.788;2023-02-22T09:12:32;9.00;92.40
55634;DHT22;41504;53.162;6.788;2023-02-22T09:14:58;9.00;92.40
55634;DHT22;41504;53.162;6.788;2023-02-22T09:17:23;9.00;92.40
55634;DHT22;41504;53.162;6.788;2023-02-22T09:19:55;9.00;92.40
55634;DHT22;41504;53.162;6.788;2023-02-22T09:22:21;9.10;92.30
55634;DHT22;41504;53.162;6.788;2023-02-22T09:24:51;9.00;92.20
55634;DHT22;41504;53.162;6.788;2023-02-22T09:27:17;9.10;92.20
55634;DHT22;41504;53.162;6.788;2023-02-22T09:29:47;9.10;92.20
55634;DHT22;41504;53.162;6.788;2023-02-22T09:32:13;9.10;92.10
55634;DHT22;41504;53.162;6.788;2023-02-22T09:34:42;9.20;92.20
55634;DHT22;41504;53.162;6.788;2023-02-22T09:37:11;9.20;92.10
55634;DHT22;41504;53.162;6.788;2023-02-22T09:39:37;9.20;92.10
55634;DHT22;41504;53.162;6.788;2023-02-22T09:44:51;9.20;92.00
55634;DHT22;41504;53.162;6.788;2023-02-22T09:47:42;9.20;92.00
55634;DHT22;41504;53.162;6.788;2023-02-22T09:50:16;9.20;92.00
55634;DHT22;41504;53.162;6.788;2023-02-22T09:55:41;9.30;91.90
55634;DHT22;41504;53.162;6.788;2023-02-22T09:58:31;9.20;91.90
55634;DHT22;41504;53.162;6.788;2023-02-22T10:04:08;9.20;91.80
55634;DHT22;41504;53.162;6.788;2023-02-22T10:06:36;9.20;91.80
55634;DHT22;41504;53.162;6.788;2023-02-22T10:09:04;9.20;91.90
55634;DHT22;41504;53.162;6.788;2023-02-22T10:14:43;9.20;91.80
55634;DHT22;41504;53.162;6.788;2023-02-22T10:20:29;9.20;91.80
55634;DHT22;41504;53.162;6.788;2023-02-22T10:23:12;9.30;91.90
55634;DHT22;41504;53.162;6.788;2023-02-22T10:25:43;9.30;91.70
55634;DHT22;41504;53.162;6.788;2023-02-22T10:28:47;9.30;91.70
55634;DHT22;41504;53.162;6.788;2023-02-22T10:31:24;9.20;91.60
55634;DHT22;41504;53.162;6.788;2023-02-22T10:33:59;9.20;91.60
55634;DHT22;41504;53.162;6.788;2023-02-22T10:36:25;9.20;91.60
55634;DHT22;41504;53.162;6.788;2023-02-22T10:38:59;9.20;91.70
55634;DHT22;41504;53.162;6.788;2023-02-22T10:41:29;9.20;91.80
55634;DHT22;41504;53.162;6.788;2023-02-22T10:43:56;9.10;91.70
55634;DHT22;41504;53.162;6.788;2023-02-22T10:46:22;9.20;91.80
55634;DHT22;41504;53.162;6.788;2023-02-22T10:48:53;9.10;91.70
55634;DHT22;41504;53.162;6.788;2023-02-22T10:51:20;9.10;91.80
55634;DHT22;41504;53.162;6.788;2023-02-22T10:53:57;9.10;91.80
55634;DHT22;41504;53.162;6.788;2023-02-22T10:56:24;9.10;91.80
55634;DHT22;41504;53.162;6.788;2023-02-22T10:59:00;9.10;91.90
55634;DHT22;41504;53.162;6.788;2023-02-22T11:04:10;9.10;91.90
55634;DHT22;41504;53.162;6.788;2023-02-22T11:06:39;9.10;91.90
55634;DHT22;41504;53.162;6.788;2023-02-22T11:09:11;9.10;91.90
55634;DHT22;41504;53.162;6.788;2023-02-22T11:11:43;9.10;91.90
55634;DHT22;41504;53.162;6.788;2023-02-22T11:14:11;9.10;91.90
55634;DHT22;41504;53.162;6.788;2023-02-22T11:16:45;9.10;91.80
55634;DHT22;41504;53.162;6.788;2023-02-22T11:19:20;9.10;91.90
55634;DHT22;41504;53.162;6.788;2023-02-22T11:21:55;9.20;91.80
55634;DHT22;41504;53.162;6.788;2023-02-22T11:24:23;9.20;91.80
55634;DHT22;41504;53.162;6.788;2023-02-22T11:27:01;9.20;91.80
55634;DHT22;41504;53.162;6.788;2023-02-22T11:29:35;9.30;91.80
55634;DHT22;41504;53.162;6.788;2023-02-22T11:32:11;9.30;91.80
55634;DHT22;41504;53.162;6.788;2023-02-22T11:34:40;9.40;91.70
55634;DHT22;41504;53.162;6.788;2023-02-22T11:37:31;9.40;91.70
55634;DHT22;41504;53.162;6.788;2023-02-22T11:42:36;9.50;91.60
55634;DHT22;41504;53.162;6.788;2023-02-22T11:45:10;9.50;91.50
55634;DHT22;41504;53.162;6.788;2023-02-22T11:48:02;9.50;91.40
55634;DHT22;41504;53.162;6.788;2023-02-22T11:56:21;9.40;91.60
55634;DHT22;41504;53.162;6.788;2023-02-22T11:59:14;9.40;91.50
55634;DHT22;41504;53.162;6.788;2023-02-22T12:08:03;9.30;91.70
55634;DHT22;41504;53.162;6.788;2023-02-22T12:13:59;9.30;91.90
55634;DHT22;41504;53.162;6.788;2023-02-22T12:21:06;9.30;92.00
55634;DHT22;41504;53.162;6.788;2023-02-22T12:29:00;9.30;92.00
55634;DHT22;41504;53.162;6.788;2023-02-22T12:31:46;9.30;92.10
55634;DHT22;41504;53.162;6.788;2023-02-22T12:37:15;9.30;92.00
55634;DHT22;41504;53.162;6.788;2023-02-22T12:39:46;9.40;92.00
55634;DHT22;41504;53.162;6.788;2023-02-22T12:45:39;9.50;91.90
55634;DHT22;41504;53.162;6.788;2023-02-22T12:51:26;9.60;91.90
55634;DHT22;41504;53.162;6.788;2023-02-22T12:56:58;9.60;92.00
55634;DHT22;41504;53.162;6.788;2023-02-22T12:59:30;9.60;92.00
55634;DHT22;41504;53.162;6.788;2023-02-22T13:02:14;9.60;92.00
55634;DHT22;41504;53.162;6.788;2023-02-22T13:04:42;9.70;92.00
55634;DHT22;41504;53.162;6.788;2023-02-22T13:07:20;9.70;92.00
55634;DHT22;41504;53.162;6.788;2023-02-22T13:10:22;9.70;91.80
55634;DHT22;41504;53.162;6.788;2023-02-22T13:13:21;9.70;91.70
55634;DHT22;41504;53.162;6.788;2023-02-22T13:18:59;9.70;91.80
55634;DHT22;41504;53.162;6.788;2023-02-22T13:27:18;9.70;91.90
55634;DHT22;41504;53.162;6.788;2023-02-22T13:29:53;9.70;91.90
55634;DHT22;41504;53.162;6.788;2023-02-22T13:48:41;9.90;91.70
55634;DHT22;41504;53.162;6.788;2023-02-22T13:53:53;9.90;91.80
55634;DHT22;41504;53.162;6.788;2023-02-22T13:56:22;10.00;91.80
55634;DHT22;41504;53.162;6.788;2023-02-22T13:58:54;10.00;91.70
55634;DHT22;41504;53.162;6.788;2023-02-22T14:01:46;10.00;91.70
55634;DHT22;41504;53.162;6.788;2023-02-22T14:04:42;10.00;91.60
55634;DHT22;41504;53.162;6.788;2023-02-22T14:17:40;10.00;91.80
55634;DHT22;41504;53.162;6.788;2023-02-22T14:22:43;10.00;91.80
55634;DHT22;41504;53.162;6.788;2023-02-22T14:25:38;10.00;91.70
55634;DHT22;41504;53.162;6.788;2023-02-22T14:36:19;10.00;91.80
55634;DHT22;41504;53.162;6.788;2023-02-22T14:38:49;10.00;91.80
55634;DHT22;41504;53.162;6.788;2023-02-22T14:41:25;9.90;91.80
55634;DHT22;41504;53.162;6.788;2023-02-22T14:43:54;9.90;91.80
55634;DHT22;41504;53.162;6.788;2023-02-22T14:46:23;9.90;91.90
55634;DHT22;41504;53.162;6.788;2023-02-22T14:48:59;9.90;92.20
55634;DHT22;41504;53.162;6.788;2023-02-22T14:51:33;9.90;92.00
55634;DHT22;41504;53.162;6.788;2023-02-22T14:56:43;9.90;92.00
55634;DHT22;41504;53.162;6.788;2023-02-22T14:59:22;9.80;92.00
55634;DHT22;41504;53.162;6.788;2023-02-22T15:02:11;9.80;92.00
55634;DHT22;41504;53.162;6.788;2023-02-22T15:04:38;9.80;92.00
55634;DHT22;41504;53.162;6.788;2023-02-22T15:07:23;9.80;92.30
55634;DHT22;41504;53.162;6.788;2023-02-22T15:13:00;9.70;92.00
55634;DHT22;41504;53.162;6.788;2023-02-22T15:15:38;9.70;92.10
55634;DHT22;41504;53.162;6.788;2023-02-22T15:18:16;9.70;92.10
55634;DHT22;41504;53.162;6.788;2023-02-22T15:20:42;9.70;92.20
55634;DHT22;41504;53.162;6.788;2023-02-22T15:23:08;9.70;92.10
55634;DHT22;41504;53.162;6.788;2023-02-22T15:25:37;9.70;92.20
55634;DHT22;41504;53.162;6.788;2023-02-22T15:28:10;9.70;92.20
55634;DHT22;41504;53.162;6.788;2023-02-22T15:30:37;9.70;92.20
55634;DHT22;41504;53.162;6.788;2023-02-22T15:33:11;9.70;92.20
55634;DHT22;41504;53.162;6.788;2023-02-22T15:35:38;9.70;92.30
55634;DHT22;41504;53.162;6.788;2023-02-22T15:38:15;9.70;92.30
55634;DHT22;41504;53.162;6.788;2023-02-22T15:40:42;9.80;92.30
55634;DHT22;41504;53.162;6.788;2023-02-22T15:43:23;9.80;92.30
55634;DHT22;41504;53.162;6.788;2023-02-22T15:45:50;9.80;92.30
55634;DHT22;41504;53.162;6.788;2023-02-22T15:48:17;9.80;92.30
55634;DHT22;41504;53.162;6.788;2023-02-22T15:51:08;9.80;92.30
55634;DHT22;41504;53.162;6.788;2023-02-22T15:53:42;9.80;92.30
55634;DHT22;41504;53.162;6.788;2023-02-22T15:56:13;9.80;92.30
55634;DHT22;41504;53.162;6.788;2023-02-22T15:58:40;9.80;92.30
55634;DHT22;41504;53.162;6.788;2023-02-22T16:01:12;9.80;92.30
55634;DHT22;41504;53.162;6.788;2023-02-22T16:03:50;9.80;92.30
55634;DHT22;41504;53.162;6.788;2023-02-22T16:06:28;9.80;92.30
55634;DHT22;41504;53.162;6.788;2023-02-22T16:08:55;9.70;92.30
55634;DHT22;41504;53.162;6.788;2023-02-22T16:11:30;9.70;92.30
55634;DHT22;41504;53.162;6.788;2023-02-22T16:14:04;9.70;92.30
55634;DHT22;41504;53.162;6.788;2023-02-22T16:16:35;9.70;92.30
55634;DHT22;41504;53.162;6.788;2023-02-22T16:19:27;9.60;92.30
55634;DHT22;41504;53.162;6.788;2023-02-22T16:21:58;9.60;92.30
55634;DHT22;41504;53.162;6.788;2023-02-22T16:24:33;9.60;92.40
55634;DHT22;41504;53.162;6.788;2023-02-22T16:29:39;9.60;92.40
55634;DHT22;41504;53.162;6.788;2023-02-22T16:32:05;9.60;92.40
55634;DHT22;41504;53.162;6.788;2023-02-22T16:34:31;9.60;92.50
55634;DHT22;41504;53.162;6.788;2023-02-22T16:36:57;9.60;92.50
55634;DHT22;41504;53.162;6.788;2023-02-22T16:39:30;9.60;92.50
55634;DHT22;41504;53.162;6.788;2023-02-22T16:42:01;9.60;92.50
55634;DHT22;41504;53.162;6.788;2023-02-22T16:44:28;9.60;92.60
55634;DHT22;41504;53.162;6.788;2023-02-22T16:46:56;9.60;92.60
55634;DHT22;41504;53.162;6.788;2023-02-22T16:49:24;9.60;92.60
55634;DHT22;41504;53.162;6.788;2023-02-22T16:51:55;9.60;92.60
55634;DHT22;41504;53.162;6.788;2023-02-22T16:54:27;9.50;92.60
55634;DHT22;41504;53.162;6.788;2023-02-22T16:57:00;9.50;92.70
55634;DHT22;41504;53.162;6.788;2023-02-22T16:59:27;9.50;92.70
55634;DHT22;41504;53.162;6.788;2023-02-22T17:01:55;9.50;92.70
55634;DHT22;41504;53.162;6.788;2023-02-22T17:04:24;9.50;92.70
55634;DHT22;41504;53.162;6.788;2023-02-22T17:06:52;9.50;92.70
55634;DHT22;41504;53.162;6.788;2023-02-22T17:09:23;9.50;92.80
55634;DHT22;41504;53.162;6.788;2023-02-22T17:11:50;9.40;92.70
55634;DHT22;41504;53.162;6.788;2023-02-22T17:14:19;9.50;92.80
55634;DHT22;41504;53.162;6.788;2023-02-22T17:16:48;9.50;92.80
55634;DHT22;41504;53.162;6.788;2023-02-22T17:19:19;9.40;92.80
55634;DHT22;41504;53.162;6.788;2023-02-22T17:21:49;9.40;92.80
55634;DHT22;41504;53.162;6.788;2023-02-22T17:24:20;9.40;92.80
55634;DHT22;41504;53.162;6.788;2023-02-22T17:26:56;9.40;92.80
55634;DHT22;41504;53.162;6.788;2023-02-22T17:29:39;9.40;92.80
55634;DHT22;41504;53.162;6.788;2023-02-22T17:32:12;9.40;92.80
55634;DHT22;41504;53.162;6.788;2023-02-22T17:34:38;9.40;92.80
55634;DHT22;41504;53.162;6.788;2023-02-22T17:37:11;9.30;92.80
55634;DHT22;41504;53.162;6.788;2023-02-22T17:39:44;9.40;92.80
55634;DHT22;41504;53.162;6.788;2023-02-22T17:42:10;9.30;92.80
55634;DHT22;41504;53.162;6.788;2023-02-22T17:44:39;9.30;92.80
55634;DHT22;41504;53.162;6.788;2023-02-22T17:47:06;9.40;92.90
55634;DHT22;41504;53.162;6.788;2023-02-22T17:49:32;9.40;92.90
55634;DHT22;41504;53.162;6.788;2023-02-22T17:51:58;9.40;92.90
55634;DHT22;41504;53.162;6.788;2023-02-22T17:54:24;9.30;92.90
55634;DHT22;41504;53.162;6.788;2023-02-22T17:56:51;9.30;92.90
55634;DHT22;41504;53.162;6.788;2023-02-22T17:59:18;9.30;92.90
55634;DHT22;41504;53.162;6.788;2023-02-22T18:01:44;9.30;92.90
55634;DHT22;41504;53.162;6.788;2023-02-22T18:04:10;9.30;92.90
55634;DHT22;41504;53.162;6.788;2023-02-22T18:06:36;9.30;92.90
55634;DHT22;41504;53.162;6.788;2023-02-22T18:09:02;9.30;92.90
55634;DHT22;41504;53.162;6.788;2023-02-22T18:11:35;9.30;92.90
55634;DHT22;41504;53.162;6.788;2023-02-22T18:14:01;9.30;92.90
55634;DHT22;41504;53.162;6.788;2023-02-22T18:16:28;9.30;92.90
55634;DHT22;41504;53.162;6.788;2023-02-22T18:18:54;9.30;92.90
55634;DHT22;41504;53.162;6.788;2023-02-22T18:21:21;9.30;92.90
55634;DHT22;41504;53.162;6.788;2023-02-22T18:23:47;9.30;92.90
55634;DHT22;41504;53.162;6.788;2023-02-22T18:26:15;9.20;92.90
55634;DHT22;41504;53.162;6.788;2023-02-22T18:28:43;9.20;92.90
55634;DHT22;41504;53.162;6.788;2023-02-22T18:31:14;9.20;92.90
55634;DHT22;41504;53.162;6.788;2023-02-22T18:33:45;9.20;93.00